createdAt,value
2019-01-03T00:01:08.385Z,60.10
2019-01-03T00:03:54.741Z,60.10
2019-01-03T00:06:48.389Z,60.10
2019-01-03T00:09:48.365Z,60.10
2019-01-03T00:12:36.178Z,60.10
2019-01-03T00:15:41.677Z,60.20
2019-01-03T00:18:29.473Z,60.40
2019-01-03T00:21:15.868Z,60.30
2019-01-03T00:24:12.400Z,60.40
2019-01-03T00:26:58.817Z,61.30
2019-01-03T00:29:52.405Z,60.60
2019-01-03T00:32:43.137Z,60.70
2019-01-03T00:35:29.468Z,60.80
2019-01-03T00:38:35.417Z,60.90
2019-01-03T00:41:32.437Z,61.00
2019-01-03T00:44:16.658Z,61.10
2019-01-03T00:47:04.601Z,61.20
2019-01-03T00:50:01.353Z,61.20
2019-01-03T00:52:46.800Z,61.40
2019-01-03T00:55:34.752Z,61.50
2019-01-03T00:58:21.060Z,61.60
2019-01-03T01:01:17.630Z,61.70
2019-01-03T01:04:17.651Z,61.70
2019-01-03T01:07:04.014Z,61.70
2019-01-03T01:09:57.618Z,61.50
2019-01-03T01:12:57.197Z,61.40
2019-01-03T01:15:43.948Z,61.20
2019-01-03T01:18:38.841Z,61.20
2019-01-03T01:21:26.716Z,61.10
2019-01-03T01:24:13.056Z,60.90
2019-01-03T01:27:06.786Z,61.10
2019-01-03T01:30:03.205Z,60.90
2019-01-03T01:32:51.076Z,60.90
2019-01-03T01:35:28.677Z,60.90
2019-01-03T01:38:22.462Z,61.00
2019-01-03T01:41:16.165Z,61.00
2019-01-03T01:44:02.729Z,61.80
2019-01-03T01:46:53.085Z,61.10
2019-01-03T01:49:39.529Z,61.20
2019-01-03T01:52:33.228Z,61.20
2019-01-03T01:55:23.957Z,61.40
2019-01-03T01:58:26.876Z,61.50
2019-01-03T02:01:29.805Z,61.70
2019-01-03T02:04:16.589Z,62.80
2019-01-03T02:07:04.422Z,62.00
2019-01-03T02:10:01.285Z,62.00
2019-01-03T02:12:47.423Z,62.10
2019-01-03T02:15:50.111Z,62.10
2019-01-03T02:18:45.556Z,62.20
2019-01-03T02:21:33.365Z,62.30
2019-01-03T02:24:29.922Z,62.30
2019-01-03T02:27:15.960Z,62.30
2019-01-03T02:30:15.602Z,62.40
2019-01-03T02:32:59.981Z,62.30
2019-01-03T02:35:46.256Z,62.30
2019-01-03T02:38:42.933Z,62.20
2019-01-03T02:41:30.725Z,62.10
2019-01-03T02:44:24.562Z,62.00
2019-01-03T02:47:12.575Z,61.90
2019-01-03T02:50:18.368Z,61.80
2019-01-03T02:53:15.101Z,61.80
2019-01-03T02:56:01.605Z,61.90
2019-01-03T02:59:01.549Z,61.90
2019-01-03T03:01:48.246Z,62.00
2019-01-03T03:04:45.001Z,62.00
2019-01-03T03:07:32.994Z,62.10
2019-01-03T03:10:23.901Z,62.20
2019-01-03T03:13:20.800Z,63.30
2019-01-03T03:16:14.684Z,63.30
2019-01-03T03:19:20.537Z,63.30
2019-01-03T03:22:08.381Z,63.30
2019-01-03T03:24:54.629Z,63.20
2019-01-03T03:27:48.564Z,63.30
2019-01-03T03:30:51.154Z,63.30
2019-01-03T03:33:52.516Z,63.20
2019-01-03T03:36:43.014Z,64.00
2019-01-03T03:39:27.152Z,63.20
2019-01-03T03:42:17.458Z,63.30
2019-01-03T03:45:03.635Z,63.20
2019-01-03T03:47:45.763Z,63.20
2019-01-03T03:50:36.540Z,63.30
2019-01-03T03:53:36.380Z,63.30
2019-01-03T03:56:23.101Z,63.30
2019-01-03T03:59:09.233Z,63.30
2019-01-03T04:01:58.020Z,63.30
2019-01-03T04:04:44.409Z,63.40
2019-01-03T04:07:35.144Z,63.30
2019-01-03T04:10:22.493Z,63.30
2019-01-03T04:13:10.029Z,63.50
2019-01-03T04:15:53.119Z,63.40
2019-01-03T04:18:59.117Z,63.40
2019-01-03T04:21:40.760Z,63.50
2019-01-03T04:24:28.080Z,63.50
2019-01-03T04:27:34.070Z,63.50
2019-01-03T04:30:20.577Z,63.50
2019-01-03T04:33:08.322Z,63.40
2019-01-03T04:35:50.357Z,63.30
2019-01-03T04:38:36.837Z,63.40
2019-01-03T04:41:23.092Z,63.30
2019-01-03T04:44:05.896Z,63.20
2019-01-03T04:47:05.756Z,63.30
2019-01-03T04:50:02.376Z,63.20
2019-01-03T04:53:02.341Z,63.10
2019-01-03T04:55:50.024Z,62.90
2019-01-03T04:58:49.666Z,62.70
2019-01-03T05:02:03.779Z,62.70
2019-01-03T05:04:42.987Z,62.80
2019-01-03T05:07:23.673Z,62.60
2019-01-03T05:10:10.246Z,62.70
2019-01-03T05:12:57.943Z,62.70
2019-01-03T05:15:45.764Z,62.80
2019-01-03T05:18:32.083Z,62.80
2019-01-03T05:21:21.595Z,63.00
2019-01-03T05:24:12.065Z,63.00
2019-01-03T05:27:04.633Z,64.00
2019-01-03T05:30:04.319Z,63.20
2019-01-03T05:32:58.610Z,63.30
2019-01-03T05:35:54.573Z,63.30
2019-01-03T05:38:41.257Z,63.30
2019-01-03T05:41:27.489Z,63.40
2019-01-03T05:44:30.271Z,63.50
2019-01-03T05:47:18.132Z,63.60
2019-01-03T05:50:06.013Z,63.70
2019-01-03T05:52:56.594Z,63.90
2019-01-03T05:55:43.149Z,64.00
2019-01-03T05:58:33.426Z,63.90
2019-01-03T06:01:27.337Z,64.00
2019-01-03T06:04:13.433Z,64.30
2019-01-03T06:06:55.993Z,64.20
2019-01-03T06:09:33.513Z,64.20
2019-01-03T06:12:24.311Z,64.50
2019-01-03T06:15:18.186Z,64.50
2019-01-03T06:18:04.921Z,64.70
2019-01-03T06:20:50.946Z,64.80
2019-01-03T06:23:38.784Z,65.00
2019-01-03T06:26:32.444Z,65.10
2019-01-03T06:29:31.897Z,65.50
2019-01-03T06:32:31.408Z,65.60
2019-01-03T06:35:17.489Z,65.70
2019-01-03T06:38:03.542Z,66.10
2019-01-03T06:40:49.869Z,66.10
2019-01-03T06:43:36.189Z,66.20
2019-01-03T06:46:24.016Z,66.30
2019-01-03T06:49:02.541Z,66.60
2019-01-03T06:51:53.020Z,66.50
2019-01-03T06:54:43.627Z,66.60
2019-01-03T06:57:37.594Z,66.80
2019-01-03T07:00:24.435Z,67.00
2019-01-03T07:03:25.248Z,67.10
2019-01-03T07:06:22.106Z,67.10
2019-01-03T07:09:08.794Z,67.00
2019-01-03T07:12:08.384Z,66.80
2019-01-03T07:14:54.943Z,66.70
2019-01-03T07:17:45.945Z,66.60
2019-01-03T07:20:33.779Z,66.40
2019-01-03T07:23:39.601Z,66.20
2019-01-03T07:26:26.133Z,66.20
2019-01-03T07:29:22.644Z,65.90
2019-01-03T07:32:23.408Z,65.70
2019-01-03T07:35:11.183Z,65.60
2019-01-03T07:38:06.484Z,65.40
2019-01-03T07:40:53.141Z,65.10
2019-01-03T07:43:39.588Z,64.90
2019-01-03T07:46:27.568Z,64.60
2019-01-03T07:49:24.469Z,64.40
2019-01-03T07:52:12.222Z,64.30
2019-01-03T07:55:12.064Z,64.10
2019-01-03T07:57:58.559Z,64.00
2019-01-03T08:00:48.370Z,63.90
2019-01-03T08:03:54.620Z,63.80
2019-01-03T08:06:44.016Z,63.50
2019-01-03T08:09:31.769Z,63.30
2019-01-03T08:12:25.614Z,63.20
2019-01-03T08:15:12.116Z,63.00
2019-01-03T08:17:58.617Z,62.50
2019-01-03T08:20:46.788Z,61.80
2019-01-03T08:23:40.725Z,61.80
2019-01-03T08:26:37.843Z,62.20
2019-01-03T08:29:28.697Z,62.60
2019-01-03T08:32:25.116Z,62.90
2019-01-03T08:35:11.662Z,63.30
2019-01-03T08:38:02.241Z,64.40
2019-01-03T08:41:02.138Z,63.30
2019-01-03T08:43:48.440Z,63.30
2019-01-03T08:46:34.845Z,63.20
2019-01-03T08:49:40.651Z,62.80
2019-01-03T08:52:27.293Z,62.00
2019-01-03T08:55:15.081Z,61.50
2019-01-03T08:58:01.733Z,61.50
2019-01-03T09:00:51.662Z,61.20
2019-01-03T09:03:42.096Z,58.90
2019-01-03T09:06:28.470Z,58.70
2019-01-03T09:09:17.389Z,58.40
2019-01-03T09:12:03.633Z,58.50
2019-01-03T09:14:57.437Z,58.80
2019-01-03T09:17:45.474Z,59.00
2019-01-03T09:20:33.412Z,59.30
2019-01-03T09:23:19.705Z,59.30
2019-01-03T09:26:13.420Z,59.20
2019-01-03T09:29:01.109Z,59.30
2019-01-03T09:31:48.952Z,59.20
2019-01-03T09:34:45.769Z,59.20
2019-01-03T09:37:39.881Z,59.50
2019-01-03T09:40:30.667Z,59.80
2019-01-03T09:43:17.848Z,60.00
2019-01-03T09:45:46.234Z,60.20
2019-01-03T09:48:17.013Z,60.50
2019-01-03T09:50:45.345Z,60.50
2019-01-03T09:53:13.866Z,61.40
2019-01-03T09:55:42.261Z,60.30
2019-01-03T09:58:10.777Z,60.30
2019-01-03T10:00:39.265Z,60.50
2019-01-03T10:03:07.755Z,60.80
2019-01-03T10:05:36.268Z,61.00
2019-01-03T10:08:04.742Z,61.20
2019-01-03T10:10:34.769Z,61.40
2019-01-03T10:13:04.353Z,61.60
2019-01-03T10:15:32.656Z,61.40
2019-01-03T10:18:01.116Z,61.40
2019-01-03T10:20:29.436Z,61.20
2019-01-03T10:22:58.396Z,61.30
2019-01-03T10:25:27.277Z,61.00
2019-01-03T10:27:55.844Z,61.20
2019-01-03T10:30:24.329Z,61.20
2019-01-03T10:32:52.808Z,61.00
2019-01-03T10:35:21.214Z,60.70
2019-01-03T10:37:49.617Z,60.60
2019-01-03T10:40:18.129Z,60.60
2019-01-03T10:42:46.807Z,60.70
2019-01-03T10:45:15.420Z,61.10
2019-01-03T10:47:44.052Z,61.40
2019-01-03T10:50:12.537Z,61.40
2019-01-03T10:52:41.561Z,61.40
2019-01-03T10:55:10.008Z,61.40
2019-01-03T10:57:40.757Z,61.50
2019-01-03T11:00:09.465Z,61.60
2019-01-03T11:02:38.041Z,61.60
2019-01-03T11:05:06.649Z,61.50
2019-01-03T11:07:36.352Z,61.50
2019-01-03T11:10:05.025Z,61.50
2019-01-03T11:12:33.377Z,61.50
2019-01-03T11:15:01.831Z,61.30
2019-01-03T11:17:31.252Z,61.20
2019-01-03T11:19:59.650Z,61.20
2019-01-03T11:22:28.077Z,61.40
2019-01-03T11:24:56.524Z,61.40
2019-01-03T11:27:24.932Z,61.60
2019-01-03T11:29:53.455Z,61.70
2019-01-03T11:32:21.974Z,61.60
2019-01-03T11:34:50.651Z,61.40
2019-01-03T11:37:19.053Z,61.50
2019-01-03T11:39:47.895Z,61.50
2019-01-03T11:42:17.005Z,60.80
2019-01-03T11:44:46.112Z,60.50
2019-01-03T11:47:17.653Z,60.70
2019-01-03T11:49:46.181Z,60.30
2019-01-03T11:52:14.676Z,60.20
2019-01-03T11:54:43.137Z,59.90
2019-01-03T11:57:11.793Z,60.00
2019-01-03T11:59:40.157Z,60.00
2019-01-03T12:02:09.085Z,59.90
2019-01-03T12:04:37.865Z,59.80
2019-01-03T12:07:06.889Z,59.80
2019-01-03T12:09:35.920Z,59.70
2019-01-03T12:12:04.804Z,59.40
2019-01-03T12:14:33.252Z,59.50
2019-01-03T12:17:02.120Z,59.90
2019-01-03T12:19:30.876Z,60.20
2019-01-03T12:21:59.621Z,60.30
2019-01-03T12:24:30.775Z,60.10
2019-01-03T12:26:59.230Z,59.90
2019-01-03T12:29:28.172Z,59.40
2019-01-03T12:31:56.728Z,59.00
2019-01-03T12:34:25.378Z,58.40
2019-01-03T12:36:54.228Z,57.80
2019-01-03T12:39:22.632Z,57.60
2019-01-03T12:41:51.397Z,57.60
2019-01-03T12:44:19.971Z,57.80
2019-01-03T12:46:48.829Z,58.20
2019-01-03T12:49:19.598Z,58.40
2019-01-03T12:51:48.601Z,58.60
2019-01-03T12:54:17.116Z,59.00
2019-01-03T12:56:45.585Z,59.20
2019-01-03T12:59:33.563Z,59.20
2019-01-03T13:02:01.867Z,59.10
2019-01-03T13:04:30.334Z,59.00
2019-01-03T13:06:58.649Z,59.00
2019-01-03T13:09:27.085Z,59.20
2019-01-03T13:11:55.478Z,59.30
2019-01-03T13:14:23.855Z,59.50
2019-01-03T13:16:52.344Z,59.80
2019-01-03T13:19:20.771Z,60.00
2019-01-03T13:21:49.137Z,60.10
2019-01-03T13:24:19.681Z,60.20
2019-01-03T13:26:48.102Z,60.30
2019-01-03T13:29:16.803Z,60.20
2019-01-03T13:31:45.530Z,60.00
2019-01-03T13:34:14.097Z,60.00
2019-01-03T13:36:42.612Z,59.80
2019-01-03T13:39:11.137Z,60.00
2019-01-03T13:41:39.481Z,60.20
2019-01-03T13:44:07.969Z,60.20
2019-01-03T13:46:37.045Z,60.20
2019-01-03T13:49:05.501Z,60.30
2019-01-03T13:51:33.916Z,60.20
2019-01-03T13:54:02.575Z,59.70
2019-01-03T13:56:31.076Z,59.40
2019-01-03T13:58:59.489Z,59.20
2019-01-03T14:01:28.038Z,59.10
2019-01-03T14:03:56.892Z,59.10
2019-01-03T14:06:25.497Z,59.00
2019-01-03T14:08:53.992Z,58.90
2019-01-03T14:11:22.429Z,59.00
2019-01-03T14:13:50.975Z,59.00
2019-01-03T14:16:19.457Z,59.60
2019-01-03T14:18:47.869Z,59.10
2019-01-03T14:21:16.249Z,59.10
2019-01-03T14:23:44.663Z,59.20
2019-01-03T14:26:13.193Z,59.30
2019-01-03T14:28:41.510Z,59.30
2019-01-03T14:31:09.945Z,60.00
2019-01-03T14:33:38.506Z,59.50
2019-01-03T14:36:07.167Z,59.60
2019-01-03T14:38:35.589Z,60.00
2019-01-03T14:41:04.350Z,60.00
2019-01-03T14:43:32.997Z,60.30
2019-01-03T14:46:01.817Z,60.40
2019-01-03T14:48:30.516Z,60.60
2019-01-03T14:50:59.017Z,60.70
2019-01-03T14:53:29.971Z,60.80
2019-01-03T14:55:58.545Z,60.80
2019-01-03T14:58:27.056Z,61.10
2019-01-03T15:00:55.537Z,61.20
2019-01-03T15:03:23.972Z,61.30
2019-01-03T15:05:52.658Z,61.40
2019-01-03T15:08:21.140Z,61.40
2019-01-03T15:10:49.621Z,61.60
2019-01-03T15:13:18.000Z,61.60
2019-01-03T15:15:46.477Z,61.40
2019-01-03T15:18:14.829Z,61.30
2019-01-03T15:20:43.345Z,61.10
2019-01-03T15:23:11.837Z,60.20
2019-01-03T15:25:40.385Z,60.00
2019-01-03T15:28:08.873Z,60.00
2019-01-03T15:30:37.348Z,60.00
2019-01-03T15:33:05.822Z,60.00
2019-01-03T15:35:35.358Z,60.00
2019-01-03T15:38:03.888Z,60.00
2019-01-03T15:40:32.225Z,59.90
2019-01-03T15:43:01.733Z,58.80
2019-01-03T15:45:30.081Z,58.30
2019-01-03T15:47:58.652Z,58.40
2019-01-03T15:50:27.291Z,58.30
2019-01-03T15:52:55.813Z,58.30
2019-01-03T15:55:24.388Z,58.30
2019-01-03T15:57:52.886Z,58.30
2019-01-03T16:00:21.369Z,58.30
2019-01-03T16:02:49.867Z,58.30
2019-01-03T16:05:18.352Z,58.30
2019-01-03T16:07:46.874Z,58.20
2019-01-03T16:10:15.284Z,58.20
2019-01-03T16:12:43.931Z,58.10
2019-01-03T16:15:12.376Z,58.10
2019-01-03T16:17:40.837Z,58.30
2019-01-03T16:20:09.489Z,58.20
2019-01-03T16:22:38.109Z,58.20
2019-01-03T16:25:06.548Z,58.10
2019-01-03T16:27:34.985Z,58.00
2019-01-03T16:30:04.286Z,57.90
2019-01-03T16:32:32.832Z,57.80
2019-01-03T16:35:01.308Z,57.80
2019-01-03T16:37:29.712Z,57.60
2019-01-03T16:39:58.021Z,57.50
2019-01-03T16:42:38.822Z,57.40
2019-01-03T16:45:08.325Z,57.50
2019-01-03T16:47:47.219Z,57.40
2019-01-03T16:50:17.074Z,57.50
2019-01-03T16:52:46.185Z,57.60
2019-01-03T16:55:14.822Z,57.60
2019-01-03T16:57:43.396Z,57.70
2019-01-03T17:00:12.693Z,57.10
2019-01-03T17:02:42.274Z,57.80
2019-01-03T17:05:10.836Z,57.90
2019-01-03T17:07:39.317Z,57.90
2019-01-03T17:10:13.931Z,58.00
2019-01-03T17:12:42.417Z,58.00
2019-01-03T17:15:10.984Z,58.00
2019-01-03T17:17:39.730Z,58.10
2019-01-03T17:20:09.538Z,58.30
2019-01-03T17:22:38.153Z,58.40
2019-01-03T17:25:08.767Z,58.50
2019-01-03T17:27:37.124Z,58.80
2019-01-03T17:30:06.443Z,58.90
2019-01-03T17:32:34.849Z,59.00
2019-01-03T17:35:03.565Z,59.20
2019-01-03T17:37:32.548Z,59.10
2019-01-03T17:40:01.073Z,59.30
2019-01-03T17:42:29.449Z,59.40
2019-01-03T17:44:59.622Z,59.50
2019-01-03T17:47:29.427Z,59.50
2019-01-03T17:49:58.123Z,59.60
2019-01-03T17:52:26.689Z,59.80
2019-01-03T17:54:55.324Z,60.10
2019-01-03T17:57:23.990Z,60.90
2019-01-03T17:59:52.519Z,60.40
2019-01-03T18:02:21.045Z,60.40
2019-01-03T18:04:49.571Z,60.40
2019-01-03T18:07:18.044Z,60.70
2019-01-03T18:09:46.547Z,60.80
2019-01-03T18:12:14.985Z,60.90
2019-01-03T18:14:43.694Z,61.00
2019-01-03T18:17:12.741Z,61.10
2019-01-03T18:19:41.204Z,61.30
2019-01-03T18:22:09.701Z,61.40
2019-01-03T18:24:38.349Z,61.40
2019-01-03T18:27:06.881Z,61.60
2019-01-03T18:29:35.812Z,61.80
2019-01-03T18:32:04.237Z,61.80
2019-01-03T18:34:32.689Z,61.80
2019-01-03T18:37:01.569Z,61.80
2019-01-03T18:39:30.118Z,62.00
2019-01-03T18:41:58.649Z,62.20
2019-01-03T18:44:27.046Z,62.10
2019-01-03T18:46:55.663Z,62.10
2019-01-03T18:49:24.201Z,62.00
2019-01-03T18:51:52.728Z,62.10
2019-01-03T18:54:21.296Z,62.60
2019-01-03T18:56:49.797Z,62.60
2019-01-03T18:59:18.465Z,62.60
2019-01-03T19:01:47.020Z,62.50
2019-01-03T19:04:15.537Z,62.50
2019-01-03T19:06:44.095Z,62.80
2019-01-03T19:09:12.524Z,62.60
2019-01-03T19:11:41.132Z,62.60
2019-01-03T19:14:09.828Z,62.50
2019-01-03T19:16:38.140Z,62.60
2019-01-03T19:19:06.645Z,62.60
2019-01-03T19:21:35.044Z,62.70
2019-01-03T19:24:03.506Z,62.90
2019-01-03T19:26:31.913Z,62.90
2019-01-03T19:29:00.287Z,62.90
2019-01-03T19:31:28.858Z,63.00
2019-01-03T19:33:57.401Z,63.10
2019-01-03T19:36:25.893Z,63.10
2019-01-03T19:38:54.431Z,63.20
2019-01-03T19:41:23.168Z,63.20
2019-01-03T19:43:52.226Z,63.20
2019-01-03T19:46:20.684Z,63.20
2019-01-03T19:48:49.262Z,63.20
2019-01-03T19:51:17.830Z,63.20
2019-01-03T19:53:46.357Z,63.30
2019-01-03T19:56:14.849Z,63.30
2019-01-03T19:58:43.345Z,63.30
2019-01-03T20:01:12.020Z,63.20
2019-01-03T20:03:40.826Z,63.30
2019-01-03T20:06:09.340Z,63.30
2019-01-03T20:08:37.707Z,63.50
2019-01-03T20:11:06.285Z,63.40
2019-01-03T20:13:34.726Z,63.50
2019-01-03T20:16:03.392Z,63.80
2019-01-03T20:18:32.601Z,63.80
2019-01-03T20:21:01.120Z,63.80
2019-01-03T20:23:29.658Z,63.80
2019-01-03T20:25:57.972Z,64.00
2019-01-03T20:28:26.590Z,64.10
2019-01-03T20:30:55.076Z,64.10
2019-01-03T20:33:24.669Z,64.30
2019-01-03T20:35:53.389Z,64.40
2019-01-03T20:38:22.361Z,64.40
2019-01-03T20:40:50.966Z,64.60
2019-01-03T20:43:19.675Z,64.80
2019-01-03T20:45:48.300Z,64.80
2019-01-03T20:48:16.793Z,64.80
2019-01-03T20:50:45.333Z,64.90
2019-01-03T20:53:14.686Z,64.90
2019-01-03T20:55:43.431Z,65.10
2019-01-03T20:58:11.885Z,65.20
2019-01-03T21:00:40.922Z,65.10
2019-01-03T21:03:09.427Z,65.30
2019-01-03T21:05:37.953Z,65.20
2019-01-03T21:08:06.480Z,65.10
2019-01-03T21:10:35.177Z,65.10
2019-01-03T21:13:03.674Z,64.90
2019-01-03T21:15:32.206Z,64.60
2019-01-03T21:18:01.705Z,64.40
2019-01-03T21:20:30.509Z,64.10
2019-01-03T21:22:58.999Z,64.00
2019-01-03T21:25:27.510Z,63.90
2019-01-03T21:27:55.802Z,63.80
2019-01-03T21:30:24.329Z,64.00
2019-01-03T21:32:52.835Z,64.10
2019-01-03T21:35:21.477Z,64.00
2019-01-03T21:37:50.104Z,64.00
2019-01-03T21:40:19.082Z,64.00
2019-01-03T21:42:47.679Z,64.10
2019-01-03T21:45:17.755Z,64.10
2019-01-03T21:47:47.144Z,64.10
2019-01-03T21:50:15.642Z,64.10
2019-01-03T21:52:43.996Z,64.20
2019-01-03T21:55:12.617Z,64.30
2019-01-03T21:57:41.254Z,64.20
2019-01-03T22:00:12.372Z,64.10
2019-01-03T22:02:40.794Z,64.20
2019-01-03T22:05:09.306Z,64.10
2019-01-03T22:07:37.943Z,64.20
2019-01-03T22:10:08.392Z,64.20
2019-01-03T22:12:36.829Z,64.30
2019-01-03T22:15:06.825Z,64.20
2019-01-03T22:17:35.264Z,64.20
2019-01-03T22:20:04.022Z,64.20
2019-01-03T22:22:32.513Z,64.40
2019-01-03T22:25:00.857Z,64.40
2019-01-03T22:27:29.919Z,64.40
2019-01-03T22:29:59.144Z,64.40
2019-01-03T22:32:28.017Z,64.40
2019-01-03T22:34:56.430Z,64.50
2019-01-03T22:37:24.864Z,64.40
2019-01-03T22:39:53.337Z,65.10
2019-01-03T22:42:21.876Z,64.20
2019-01-03T22:44:50.472Z,64.30
2019-01-03T22:47:18.868Z,64.20
2019-01-03T22:49:47.324Z,64.10
2019-01-03T22:52:15.701Z,64.00
2019-01-03T22:54:44.154Z,64.00
2019-01-03T22:57:12.805Z,64.80
2019-01-03T22:59:41.380Z,64.00
2019-01-03T23:02:09.785Z,63.90
2019-01-03T23:04:38.205Z,63.80
2019-01-03T23:07:06.771Z,63.80
2019-01-03T23:09:35.136Z,63.70
2019-01-03T23:12:03.676Z,63.70
2019-01-03T23:14:32.542Z,63.50
2019-01-03T23:17:00.961Z,63.40
2019-01-03T23:19:29.449Z,63.20
2019-01-03T23:21:57.760Z,63.20
2019-01-03T23:24:26.190Z,63.10
2019-01-03T23:26:54.659Z,63.00
2019-01-03T23:29:23.184Z,63.00
2019-01-03T23:31:51.655Z,63.10
2019-01-03T23:34:20.792Z,63.20
2019-01-03T23:36:49.260Z,63.40
2019-01-03T23:39:17.716Z,64.60
2019-01-03T23:41:46.017Z,64.80
2019-01-03T23:44:14.473Z,64.60
2019-01-03T23:46:42.781Z,64.60
2019-01-03T23:49:11.301Z,64.50
2019-01-03T23:51:39.893Z,64.80
2019-01-03T23:54:08.257Z,64.60
2019-01-03T23:56:36.685Z,64.70
2019-01-03T23:59:05.160Z,65.70
